Smartt, Tennessee
Current Conditions -  °F | °C
As of 5:55 AM on Sunday 21 Dec 2014 (Local Time) from KRNC Reporting Station
Clear Clear  
Wind Chill: 25°   Ceiling: Unl
Heat Index: 25°   Visibility: 10mi
Dew Point: 25°   Wind: 0mph
Humidity: 100%   Direction: NA
Pressure: 30.22"   Gusts: NA
Location:  35.64°N, 85.84°W
Report Text: KRNC 211155Z AUTO 00000KT 10SM CLR M04/M04 A3022 RMK
Loading
Personal Weather Stations






























Interactive Weather Map New forecast layout! Learn more

10-Day Weather Forecast

Advertisements
Track Severe Weather on mobile